sensor_id;sensor_type;location;lat;lon;timestamp;P1;durP1;ratioP1;P2;durP2;ratioP2
10582;SDS011;33679;51.218;6.786;2023-04-24T00:01:16;1.10;;;1.00;;
10582;SDS011;33679;51.218;6.786;2023-04-24T00:03:49;2.43;;;1.13;;
10582;SDS011;33679;51.218;6.786;2023-04-24T00:06:22;1.30;;;1.00;;
10582;SDS011;33679;51.218;6.786;2023-04-24T00:09:07;1.13;;;1.03;;
10582;SDS011;33679;51.218;6.786;2023-04-24T00:11:41;2.17;;;1.43;;
10582;SDS011;33679;51.218;6.786;2023-04-24T00:14:14;1.93;;;1.20;;
10582;SDS011;33679;51.218;6.786;2023-04-24T00:16:47;2.27;;;1.30;;
10582;SDS011;33679;51.218;6.786;2023-04-24T00:19:28;3.77;;;1.10;;
10582;SDS011;33679;51.218;6.786;2023-04-24T00:22:01;2.97;;;1.60;;
10582;SDS011;33679;51.218;6.786;2023-04-24T00:24:35;1.40;;;1.00;;
10582;SDS011;33679;51.218;6.786;2023-04-24T00:27:15;1.20;;;1.10;;
10582;SDS011;33679;51.218;6.786;2023-04-24T00:29:48;2.30;;;1.30;;
10582;SDS011;33679;51.218;6.786;2023-04-24T00:32:28;1.57;;;1.30;;
10582;SDS011;33679;51.218;6.786;2023-04-24T00:35:09;1.30;;;1.20;;
10582;SDS011;33679;51.218;6.786;2023-04-24T00:37:41;1.80;;;1.10;;
10582;SDS011;33679;51.218;6.786;2023-04-24T00:40:32;1.90;;;1.37;;
10582;SDS011;33679;51.218;6.786;2023-04-24T00:43:11;1.87;;;1.20;;
10582;SDS011;33679;51.218;6.786;2023-04-24T00:45:53;1.60;;;1.30;;
10582;SDS011;33679;51.218;6.786;2023-04-24T00:48:26;3.50;;;1.20;;
10582;SDS011;33679;51.218;6.786;2023-04-24T00:51:00;2.83;;;1.30;;
10582;SDS011;33679;51.218;6.786;2023-04-24T00:53:33;1.30;;;1.20;;
10582;SDS011;33679;51.218;6.786;2023-04-24T00:56:06;2.13;;;1.50;;
10582;SDS011;33679;51.218;6.786;2023-04-24T00:58:55;1.90;;;1.40;;
10582;SDS011;33679;51.218;6.786;2023-04-24T01:01:40;2.60;;;1.37;;
10582;SDS011;33679;51.218;6.786;2023-04-24T01:04:16;1.40;;;1.30;;
10582;SDS011;33679;51.218;6.786;2023-04-24T01:06:49;2.47;;;1.50;;
10582;SDS011;33679;51.218;6.786;2023-04-24T01:09:28;2.27;;;1.50;;
10582;SDS011;33679;51.218;6.786;2023-04-24T01:12:07;1.60;;;1.50;;
10582;SDS011;33679;51.218;6.786;2023-04-24T01:14:42;3.00;;;1.60;;
10582;SDS011;33679;51.218;6.786;2023-04-24T01:17:14;2.00;;;1.87;;
10582;SDS011;33679;51.218;6.786;2023-04-24T01:19:47;2.93;;;2.13;;
10582;SDS011;33679;51.218;6.786;2023-04-24T01:22:21;2.53;;;2.33;;
10582;SDS011;33679;51.218;6.786;2023-04-24T01:25:13;4.27;;;2.77;;
10582;SDS011;33679;51.218;6.786;2023-04-24T01:27:46;3.10;;;2.13;;
10582;SDS011;33679;51.218;6.786;2023-04-24T01:30:18;3.57;;;2.70;;
10582;SDS011;33679;51.218;6.786;2023-04-24T01:32:52;3.00;;;2.50;;
10582;SDS011;33679;51.218;6.786;2023-04-24T01:35:25;3.30;;;2.40;;
10582;SDS011;33679;51.218;6.786;2023-04-24T01:37:59;4.30;;;3.47;;
10582;SDS011;33679;51.218;6.786;2023-04-24T01:40:31;10.80;;;4.07;;
10582;SDS011;33679;51.218;6.786;2023-04-24T01:43:04;4.97;;;3.77;;
10582;SDS011;33679;51.218;6.786;2023-04-24T01:45:37;7.13;;;3.80;;
10582;SDS011;33679;51.218;6.786;2023-04-24T01:48:10;7.80;;;3.90;;
10582;SDS011;33679;51.218;6.786;2023-04-24T01:50:45;5.60;;;3.90;;
10582;SDS011;33679;51.218;6.786;2023-04-24T01:53:21;6.07;;;3.70;;
10582;SDS011;33679;51.218;6.786;2023-04-24T01:56:06;5.87;;;4.00;;
10582;SDS011;33679;51.218;6.786;2023-04-24T01:58:39;7.10;;;4.47;;
10582;SDS011;33679;51.218;6.786;2023-04-24T02:01:14;5.17;;;3.83;;
10582;SDS011;33679;51.218;6.786;2023-04-24T02:03:54;9.10;;;4.57;;
10582;SDS011;33679;51.218;6.786;2023-04-24T02:06:28;11.80;;;4.90;;
10582;SDS011;33679;51.218;6.786;2023-04-24T02:09:06;9.43;;;5.33;;
10582;SDS011;33679;51.218;6.786;2023-04-24T02:11:42;7.87;;;4.87;;
10582;SDS011;33679;51.218;6.786;2023-04-24T02:14:14;8.80;;;5.20;;
10582;SDS011;33679;51.218;6.786;2023-04-24T02:16:47;6.80;;;4.30;;
10582;SDS011;33679;51.218;6.786;2023-04-24T02:19:25;5.60;;;4.07;;
10582;SDS011;33679;51.218;6.786;2023-04-24T02:21:57;9.20;;;4.63;;
10582;SDS011;33679;51.218;6.786;2023-04-24T02:24:31;7.57;;;4.30;;
10582;SDS011;33679;51.218;6.786;2023-04-24T02:27:03;6.40;;;4.63;;
10582;SDS011;33679;51.218;6.786;2023-04-24T02:29:36;11.80;;;4.90;;
10582;SDS011;33679;51.218;6.786;2023-04-24T02:32:12;11.00;;;4.60;;
10582;SDS011;33679;51.218;6.786;2023-04-24T02:34:49;7.10;;;4.50;;
10582;SDS011;33679;51.218;6.786;2023-04-24T02:37:21;8.23;;;4.97;;
10582;SDS011;33679;51.218;6.786;2023-04-24T02:40:03;5.40;;;4.40;;
10582;SDS011;33679;51.218;6.786;2023-04-24T02:42:38;7.63;;;5.10;;
10582;SDS011;33679;51.218;6.786;2023-04-24T02:45:12;7.60;;;4.97;;
10582;SDS011;33679;51.218;6.786;2023-04-24T02:47:46;6.70;;;4.20;;
10582;SDS011;33679;51.218;6.786;2023-04-24T02:50:19;6.07;;;4.40;;
10582;SDS011;33679;51.218;6.786;2023-04-24T02:53:03;6.90;;;5.03;;
10582;SDS011;33679;51.218;6.786;2023-04-24T02:55:39;7.60;;;4.40;;
10582;SDS011;33679;51.218;6.786;2023-04-24T02:58:15;8.20;;;4.80;;
10582;SDS011;33679;51.218;6.786;2023-04-24T03:00:52;7.03;;;4.77;;
10582;SDS011;33679;51.218;6.786;2023-04-24T03:03:26;11.90;;;6.00;;
10582;SDS011;33679;51.218;6.786;2023-04-24T03:06:01;8.80;;;5.20;;
10582;SDS011;33679;51.218;6.786;2023-04-24T03:08:37;8.70;;;5.70;;
10582;SDS011;33679;51.218;6.786;2023-04-24T03:11:11;10.33;;;5.80;;
10582;SDS011;33679;51.218;6.786;2023-04-24T03:13:46;7.20;;;4.73;;
10582;SDS011;33679;51.218;6.786;2023-04-24T03:16:24;5.30;;;4.77;;
10582;SDS011;33679;51.218;6.786;2023-04-24T03:19:06;7.40;;;4.83;;
10582;SDS011;33679;51.218;6.786;2023-04-24T03:21:59;7.87;;;5.00;;
10582;SDS011;33679;51.218;6.786;2023-04-24T03:24:47;8.97;;;4.60;;
10582;SDS011;33679;51.218;6.786;2023-04-24T03:27:24;7.80;;;5.70;;
10582;SDS011;33679;51.218;6.786;2023-04-24T03:30:05;8.70;;;5.50;;
10582;SDS011;33679;51.218;6.786;2023-04-24T03:32:48;6.63;;;4.80;;
10582;SDS011;33679;51.218;6.786;2023-04-24T03:35:29;6.33;;;5.00;;
10582;SDS011;33679;51.218;6.786;2023-04-24T03:38:06;7.43;;;4.67;;
10582;SDS011;33679;51.218;6.786;2023-04-24T03:41:02;8.60;;;4.50;;
10582;SDS011;33679;51.218;6.786;2023-04-24T03:43:59;6.87;;;4.50;;
10582;SDS011;33679;51.218;6.786;2023-04-24T03:46:31;9.00;;;4.40;;
10582;SDS011;33679;51.218;6.786;2023-04-24T03:49:05;8.13;;;5.37;;
10582;SDS011;33679;51.218;6.786;2023-04-24T03:51:41;8.87;;;5.47;;
10582;SDS011;33679;51.218;6.786;2023-04-24T03:54:33;5.90;;;4.47;;
10582;SDS011;33679;51.218;6.786;2023-04-24T03:58:38;9.90;;;6.03;;
10582;SDS011;33679;51.218;6.786;2023-04-24T04:01:13;14.90;;;8.43;;
10582;SDS011;33679;51.218;6.786;2023-04-24T04:04:09;8.67;;;5.73;;
10582;SDS011;33679;51.218;6.786;2023-04-24T04:06:42;7.83;;;5.50;;
10582;SDS011;33679;51.218;6.786;2023-04-24T04:09:17;9.93;;;4.60;;
10582;SDS011;33679;51.218;6.786;2023-04-24T04:11:50;6.30;;;5.00;;
10582;SDS011;33679;51.218;6.786;2023-04-24T04:14:24;8.60;;;5.53;;
10582;SDS011;33679;51.218;6.786;2023-04-24T04:17:06;6.73;;;4.50;;
10582;SDS011;33679;51.218;6.786;2023-04-24T04:19:47;8.33;;;4.70;;
10582;SDS011;33679;51.218;6.786;2023-04-24T04:22:28;8.50;;;5.53;;
10582;SDS011;33679;51.218;6.786;2023-04-24T04:25:10;11.50;;;5.00;;
10582;SDS011;33679;51.218;6.786;2023-04-24T04:27:59;7.77;;;4.50;;
10582;SDS011;33679;51.218;6.786;2023-04-24T04:30:35;6.90;;;4.90;;
10582;SDS011;33679;51.218;6.786;2023-04-24T04:33:09;8.47;;;5.50;;
10582;SDS011;33679;51.218;6.786;2023-04-24T04:35:53;12.33;;;6.50;;
10582;SDS011;33679;51.218;6.786;2023-04-24T04:38:44;12.37;;;5.47;;
10582;SDS011;33679;51.218;6.786;2023-04-24T04:41:50;5.93;;;4.50;;
10582;SDS011;33679;51.218;6.786;2023-04-24T04:44:51;7.40;;;4.83;;
10582;SDS011;33679;51.218;6.786;2023-04-24T04:47:49;8.90;;;4.00;;
10582;SDS011;33679;51.218;6.786;2023-04-24T04:50:22;8.73;;;5.00;;
10582;SDS011;33679;51.218;6.786;2023-04-24T04:53:22;6.57;;;4.43;;
10582;SDS011;33679;51.218;6.786;2023-04-24T04:58:56;9.87;;;5.60;;
10582;SDS011;33679;51.218;6.786;2023-04-24T05:01:32;14.87;;;5.50;;
10582;SDS011;33679;51.218;6.786;2023-04-24T05:04:06;7.27;;;4.90;;
10582;SDS011;33679;51.218;6.786;2023-04-24T05:06:38;7.37;;;5.00;;
10582;SDS011;33679;51.218;6.786;2023-04-24T05:09:13;6.00;;;4.10;;
10582;SDS011;33679;51.218;6.786;2023-04-24T05:11:58;5.33;;;4.20;;
10582;SDS011;33679;51.218;6.786;2023-04-24T05:14:35;5.97;;;4.23;;
10582;SDS011;33679;51.218;6.786;2023-04-24T05:17:08;6.53;;;4.50;;
10582;SDS011;33679;51.218;6.786;2023-04-24T05:19:42;6.90;;;4.00;;
10582;SDS011;33679;51.218;6.786;2023-04-24T05:22:18;7.63;;;3.97;;
10582;SDS011;33679;51.218;6.786;2023-04-24T05:24:56;6.40;;;4.70;;
10582;SDS011;33679;51.218;6.786;2023-04-24T05:28:05;7.40;;;5.03;;
10582;SDS011;33679;51.218;6.786;2023-04-24T05:30:52;5.47;;;3.87;;
10582;SDS011;33679;51.218;6.786;2023-04-24T05:33:25;7.57;;;4.23;;
10582;SDS011;33679;51.218;6.786;2023-04-24T05:35:59;4.67;;;4.00;;
10582;SDS011;33679;51.218;6.786;2023-04-24T05:38:36;6.67;;;5.27;;
10582;SDS011;33679;51.218;6.786;2023-04-24T05:41:08;6.50;;;3.53;;
10582;SDS011;33679;51.218;6.786;2023-04-24T05:43:43;5.50;;;3.87;;
10582;SDS011;33679;51.218;6.786;2023-04-24T05:46:15;6.73;;;3.80;;
10582;SDS011;33679;51.218;6.786;2023-04-24T05:48:48;5.93;;;3.90;;
10582;SDS011;33679;51.218;6.786;2023-04-24T05:51:27;10.33;;;4.70;;
10582;SDS011;33679;51.218;6.786;2023-04-24T05:54:01;5.83;;;4.30;;
10582;SDS011;33679;51.218;6.786;2023-04-24T05:56:55;5.43;;;4.40;;
10582;SDS011;33679;51.218;6.786;2023-04-24T05:59:38;5.13;;;3.93;;
10582;SDS011;33679;51.218;6.786;2023-04-24T06:02:15;5.90;;;4.50;;
10582;SDS011;33679;51.218;6.786;2023-04-24T06:04:51;8.20;;;4.70;;
10582;SDS011;33679;51.218;6.786;2023-04-24T06:07:36;8.40;;;4.40;;
10582;SDS011;33679;51.218;6.786;2023-04-24T06:10:13;7.60;;;4.73;;
10582;SDS011;33679;51.218;6.786;2023-04-24T06:12:48;6.90;;;4.00;;
10582;SDS011;33679;51.218;6.786;2023-04-24T06:15:22;5.70;;;4.37;;
10582;SDS011;33679;51.218;6.786;2023-04-24T06:18:03;5.07;;;3.77;;
10582;SDS011;33679;51.218;6.786;2023-04-24T06:20:38;4.97;;;4.13;;
10582;SDS011;33679;51.218;6.786;2023-04-24T06:23:14;7.03;;;3.60;;
10582;SDS011;33679;51.218;6.786;2023-04-24T06:25:46;8.20;;;4.00;;
10582;SDS011;33679;51.218;6.786;2023-04-24T06:28:19;4.30;;;3.70;;
10582;SDS011;33679;51.218;6.786;2023-04-24T06:30:52;6.50;;;3.90;;
10582;SDS011;33679;51.218;6.786;2023-04-24T06:33:26;4.20;;;3.57;;
10582;SDS011;33679;51.218;6.786;2023-04-24T06:35:59;4.53;;;3.27;;
10582;SDS011;33679;51.218;6.786;2023-04-24T06:38:32;4.40;;;3.13;;
10582;SDS011;33679;51.218;6.786;2023-04-24T06:41:05;5.20;;;3.27;;
10582;SDS011;33679;51.218;6.786;2023-04-24T06:43:37;5.87;;;3.57;;
10582;SDS011;33679;51.218;6.786;2023-04-24T06:46:12;4.00;;;3.23;;
10582;SDS011;33679;51.218;6.786;2023-04-24T06:48:44;4.07;;;3.13;;
10582;SDS011;33679;51.218;6.786;2023-04-24T06:51:17;4.03;;;3.63;;
10582;SDS011;33679;51.218;6.786;2023-04-24T06:53:51;13.47;;;5.90;;
10582;SDS011;33679;51.218;6.786;2023-04-24T06:56:20;7.60;;;4.17;;
10582;SDS011;33679;51.218;6.786;2023-04-24T06:58:53;6.47;;;4.00;;
10582;SDS011;33679;51.218;6.786;2023-04-24T07:01:25;5.50;;;4.20;;
10582;SDS011;33679;51.218;6.786;2023-04-24T07:04:00;3.93;;;2.93;;
10582;SDS011;33679;51.218;6.786;2023-04-24T07:06:32;5.17;;;2.83;;
10582;SDS011;33679;51.218;6.786;2023-04-24T07:09:07;4.77;;;2.90;;
10582;SDS011;33679;51.218;6.786;2023-04-24T07:11:40;4.67;;;3.10;;
10582;SDS011;33679;51.218;6.786;2023-04-24T07:14:12;4.87;;;2.67;;
10582;SDS011;33679;51.218;6.786;2023-04-24T07:16:45;3.27;;;2.87;;
10582;SDS011;33679;51.218;6.786;2023-04-24T07:19:18;2.93;;;2.30;;
10582;SDS011;33679;51.218;6.786;2023-04-24T07:21:50;3.17;;;2.83;;
10582;SDS011;33679;51.218;6.786;2023-04-24T07:24:25;3.67;;;2.57;;
10582;SDS011;33679;51.218;6.786;2023-04-24T07:26:58;2.80;;;2.30;;
10582;SDS011;33679;51.218;6.786;2023-04-24T07:29:31;3.13;;;1.80;;
10582;SDS011;33679;51.218;6.786;2023-04-24T07:32:03;8.03;;;4.73;;
10582;SDS011;33679;51.218;6.786;2023-04-24T07:34:36;3.10;;;2.47;;
10582;SDS011;33679;51.218;6.786;2023-04-24T07:37:14;2.90;;;2.17;;
10582;SDS011;33679;51.218;6.786;2023-04-24T07:39:48;3.73;;;2.17;;
10582;SDS011;33679;51.218;6.786;2023-04-24T07:42:22;1.70;;;1.27;;
10582;SDS011;33679;51.218;6.786;2023-04-24T07:44:55;2.20;;;1.40;;
10582;SDS011;33679;51.218;6.786;2023-04-24T07:47:27;2.30;;;1.23;;
10582;SDS011;33679;51.218;6.786;2023-04-24T07:50:01;3.03;;;1.00;;
10582;SDS011;33679;51.218;6.786;2023-04-24T07:52:35;1.00;;;0.90;;
10582;SDS011;33679;51.218;6.786;2023-04-24T07:55:09;2.20;;;1.20;;
10582;SDS011;33679;51.218;6.786;2023-04-24T07:57:41;6.30;;;4.07;;
10582;SDS011;33679;51.218;6.786;2023-04-24T08:00:14;4.27;;;2.07;;
10582;SDS011;33679;51.218;6.786;2023-04-24T08:02:46;1.20;;;1.00;;
10582;SDS011;33679;51.218;6.786;2023-04-24T08:05:19;1.50;;;0.90;;
10582;SDS011;33679;51.218;6.786;2023-04-24T08:07:51;1.30;;;0.83;;
10582;SDS011;33679;51.218;6.786;2023-04-24T08:10:25;1.67;;;1.00;;
10582;SDS011;33679;51.218;6.786;2023-04-24T08:12:58;1.80;;;1.00;;
10582;SDS011;33679;51.218;6.786;2023-04-24T08:15:30;1.00;;;0.90;;
10582;SDS011;33679;51.218;6.786;2023-04-24T08:18:03;1.50;;;1.00;;
10582;SDS011;33679;51.218;6.786;2023-04-24T08:20:35;3.73;;;2.50;;
10582;SDS011;33679;51.218;6.786;2023-04-24T08:23:08;2.67;;;1.87;;
10582;SDS011;33679;51.218;6.786;2023-04-24T08:25:41;1.50;;;1.10;;
10582;SDS011;33679;51.218;6.786;2023-04-24T08:28:14;1.70;;;1.60;;
10582;SDS011;33679;51.218;6.786;2023-04-24T08:30:50;2.50;;;1.70;;
10582;SDS011;33679;51.218;6.786;2023-04-24T08:33:25;2.73;;;1.87;;
10582;SDS011;33679;51.218;6.786;2023-04-24T08:36:03;2.30;;;2.00;;
10582;SDS011;33679;51.218;6.786;2023-04-24T08:38:36;4.23;;;2.03;;
10582;SDS011;33679;51.218;6.786;2023-04-24T08:41:13;6.07;;;2.30;;
10582;SDS011;33679;51.218;6.786;2023-04-24T08:43:46;2.93;;;1.93;;
10582;SDS011;33679;51.218;6.786;2023-04-24T08:46:21;1.70;;;1.60;;
10582;SDS011;33679;51.218;6.786;2023-04-24T08:48:55;2.70;;;2.50;;
10582;SDS011;33679;51.218;6.786;2023-04-24T08:51:29;3.47;;;2.43;;
10582;SDS011;33679;51.218;6.786;2023-04-24T08:54:03;3.73;;;2.60;;
10582;SDS011;33679;51.218;6.786;2023-04-24T08:56:39;3.17;;;2.70;;
10582;SDS011;33679;51.218;6.786;2023-04-24T08:59:13;6.00;;;2.90;;
10582;SDS011;33679;51.218;6.786;2023-04-24T09:01:46;4.07;;;2.90;;
10582;SDS011;33679;51.218;6.786;2023-04-24T09:04:22;3.60;;;2.20;;
10582;SDS011;33679;51.218;6.786;2023-04-24T09:06:56;3.00;;;2.17;;
10582;SDS011;33679;51.218;6.786;2023-04-24T09:09:32;3.20;;;2.10;;
10582;SDS011;33679;51.218;6.786;2023-04-24T09:12:07;3.17;;;1.90;;
10582;SDS011;33679;51.218;6.786;2023-04-24T09:14:41;3.43;;;2.20;;
10582;SDS011;33679;51.218;6.786;2023-04-24T09:17:18;2.73;;;2.20;;
10582;SDS011;33679;51.218;6.786;2023-04-24T09:19:50;2.57;;;1.93;;
10582;SDS011;33679;51.218;6.786;2023-04-24T09:22:24;3.30;;;2.57;;
10582;SDS011;33679;51.218;6.786;2023-04-24T09:24:59;3.57;;;2.37;;
10582;SDS011;33679;51.218;6.786;2023-04-24T09:27:40;4.93;;;2.70;;
10582;SDS011;33679;51.218;6.786;2023-04-24T09:30:13;3.10;;;2.53;;
10582;SDS011;33679;51.218;6.786;2023-04-24T09:32:58;5.37;;;2.90;;
10582;SDS011;33679;51.218;6.786;2023-04-24T09:35:48;5.67;;;2.80;;
10582;SDS011;33679;51.218;6.786;2023-04-24T09:38:30;8.07;;;3.57;;
10582;SDS011;33679;51.218;6.786;2023-04-24T09:41:04;6.53;;;3.33;;
10582;SDS011;33679;51.218;6.786;2023-04-24T09:43:39;4.57;;;2.80;;
10582;SDS011;33679;51.218;6.786;2023-04-24T09:46:11;5.23;;;2.53;;
10582;SDS011;33679;51.218;6.786;2023-04-24T09:48:44;4.83;;;3.77;;
10582;SDS011;33679;51.218;6.786;2023-04-24T09:51:16;12.33;;;3.57;;
10582;SDS011;33679;51.218;6.786;2023-04-24T09:53:48;5.40;;;4.00;;
10582;SDS011;33679;51.218;6.786;2023-04-24T09:56:27;5.20;;;3.20;;
10582;SDS011;33679;51.218;6.786;2023-04-24T09:59:05;9.30;;;3.60;;
10582;SDS011;33679;51.218;6.786;2023-04-24T10:01:38;5.10;;;3.63;;
10582;SDS011;33679;51.218;6.786;2023-04-24T10:04:16;6.80;;;4.10;;
10582;SDS011;33679;51.218;6.786;2023-04-24T10:06:51;6.80;;;4.07;;
10582;SDS011;33679;51.218;6.786;2023-04-24T10:09:26;7.80;;;4.57;;
10582;SDS011;33679;51.218;6.786;2023-04-24T10:11:58;10.30;;;5.20;;
10582;SDS011;33679;51.218;6.786;2023-04-24T10:14:34;8.50;;;4.37;;
10582;SDS011;33679;51.218;6.786;2023-04-24T10:17:07;5.83;;;4.10;;
10582;SDS011;33679;51.218;6.786;2023-04-24T10:19:39;7.13;;;4.50;;
10582;SDS011;33679;51.218;6.786;2023-04-24T10:22:14;18.00;;;9.50;;
10582;SDS011;33679;51.218;6.786;2023-04-24T10:24:48;7.13;;;5.30;;
10582;SDS011;33679;51.218;6.786;2023-04-24T10:27:21;7.40;;;4.63;;
10582;SDS011;33679;51.218;6.786;2023-04-24T10:29:56;6.33;;;3.90;;
10582;SDS011;33679;51.218;6.786;2023-04-24T10:32:29;8.00;;;4.30;;
10582;SDS011;33679;51.218;6.786;2023-04-24T10:35:03;8.47;;;4.90;;
10582;SDS011;33679;51.218;6.786;2023-04-24T10:37:38;8.03;;;3.43;;
10582;SDS011;33679;51.218;6.786;2023-04-24T10:40:17;7.87;;;4.80;;
10582;SDS011;33679;51.218;6.786;2023-04-24T10:42:51;11.07;;;4.63;;
10582;SDS011;33679;51.218;6.786;2023-04-24T10:45:27;8.63;;;4.03;;
10582;SDS011;33679;51.218;6.786;2023-04-24T10:48:02;20.20;;;11.30;;
10582;SDS011;33679;51.218;6.786;2023-04-24T10:50:42;18.60;;;9.40;;
10582;SDS011;33679;51.218;6.786;2023-04-24T10:53:16;7.60;;;4.00;;
10582;SDS011;33679;51.218;6.786;2023-04-24T10:55:51;8.37;;;3.93;;
10582;SDS011;33679;51.218;6.786;2023-04-24T10:58:35;6.43;;;3.43;;
10582;SDS011;33679;51.218;6.786;2023-04-24T11:01:10;10.27;;;3.67;;
10582;SDS011;33679;51.218;6.786;2023-04-24T11:04:00;8.30;;;3.63;;
10582;SDS011;33679;51.218;6.786;2023-04-24T11:06:34;10.00;;;3.87;;
10582;SDS011;33679;51.218;6.786;2023-04-24T11:09:07;5.97;;;3.50;;
10582;SDS011;33679;51.218;6.786;2023-04-24T11:11:44;6.47;;;4.40;;
10582;SDS011;33679;51.218;6.786;2023-04-24T11:14:17;12.67;;;3.53;;
10582;SDS011;33679;51.218;6.786;2023-04-24T11:16:54;10.50;;;3.43;;
10582;SDS011;33679;51.218;6.786;2023-04-24T11:19:26;5.47;;;3.17;;
10582;SDS011;33679;51.218;6.786;2023-04-24T11:22:00;7.80;;;3.33;;
10582;SDS011;33679;51.218;6.786;2023-04-24T11:24:37;5.53;;;2.90;;
10582;SDS011;33679;51.218;6.786;2023-04-24T11:27:21;9.37;;;3.10;;
10582;SDS011;33679;51.218;6.786;2023-04-24T11:29:58;5.10;;;2.67;;
10582;SDS011;33679;51.218;6.786;2023-04-24T11:32:35;7.30;;;2.93;;
10582;SDS011;33679;51.218;6.786;2023-04-24T11:35:08;10.90;;;3.10;;
10582;SDS011;33679;51.218;6.786;2023-04-24T11:37:46;8.23;;;3.50;;
10582;SDS011;33679;51.218;6.786;2023-04-24T11:40:22;3.97;;;2.50;;
10582;SDS011;33679;51.218;6.786;2023-04-24T11:42:56;7.70;;;2.90;;
10582;SDS011;33679;51.218;6.786;2023-04-24T11:45:47;8.67;;;2.67;;
10582;SDS011;33679;51.218;6.786;2023-04-24T11:48:25;3.83;;;2.60;;
10582;SDS011;33679;51.218;6.786;2023-04-24T11:50:58;16.10;;;8.27;;
10582;SDS011;33679;51.218;6.786;2023-04-24T11:53:33;6.07;;;3.10;;
10582;SDS011;33679;51.218;6.786;2023-04-24T11:56:08;9.27;;;3.20;;
10582;SDS011;33679;51.218;6.786;2023-04-24T11:58:40;5.80;;;2.90;;
10582;SDS011;33679;51.218;6.786;2023-04-24T12:01:13;6.80;;;2.93;;
10582;SDS011;33679;51.218;6.786;2023-04-24T12:03:48;5.70;;;2.80;;
10582;SDS011;33679;51.218;6.786;2023-04-24T12:06:22;8.53;;;3.40;;
10582;SDS011;33679;51.218;6.786;2023-04-24T12:08:54;6.83;;;3.13;;
10582;SDS011;33679;51.218;6.786;2023-04-24T12:11:28;4.83;;;2.60;;
10582;SDS011;33679;51.218;6.786;2023-04-24T12:14:09;5.47;;;2.50;;
10582;SDS011;33679;51.218;6.786;2023-04-24T12:16:47;9.83;;;5.13;;
10582;SDS011;33679;51.218;6.786;2023-04-24T12:19:22;3.80;;;2.80;;
10582;SDS011;33679;51.218;6.786;2023-04-24T12:22:00;3.83;;;2.60;;
10582;SDS011;33679;51.218;6.786;2023-04-24T12:24:34;4.70;;;2.90;;
10582;SDS011;33679;51.218;6.786;2023-04-24T12:27:06;8.83;;;3.13;;
10582;SDS011;33679;51.218;6.786;2023-04-24T12:29:53;5.10;;;2.03;;
10582;SDS011;33679;51.218;6.786;2023-04-24T12:32:27;6.70;;;2.10;;
10582;SDS011;33679;51.218;6.786;2023-04-24T12:35:04;13.73;;;2.37;;
10582;SDS011;33679;51.218;6.786;2023-04-24T12:37:37;7.97;;;3.70;;
10582;SDS011;33679;51.218;6.786;2023-04-24T12:40:12;16.73;;;8.00;;
10582;SDS011;33679;51.218;6.786;2023-04-24T12:42:49;9.83;;;4.10;;
10582;SDS011;33679;51.218;6.786;2023-04-24T12:45:22;3.33;;;2.10;;
10582;SDS011;33679;51.218;6.786;2023-04-24T12:47:55;3.00;;;1.80;;
10582;SDS011;33679;51.218;6.786;2023-04-24T12:50:30;9.80;;;1.77;;
10582;SDS011;33679;51.218;6.786;2023-04-24T12:53:02;2.40;;;1.70;;
10582;SDS011;33679;51.218;6.786;2023-04-24T12:55:35;2.27;;;1.60;;
10582;SDS011;33679;51.218;6.786;2023-04-24T12:58:08;3.43;;;1.97;;
10582;SDS011;33679;51.218;6.786;2023-04-24T13:00:40;2.40;;;1.50;;
10582;SDS011;33679;51.218;6.786;2023-04-24T13:03:16;4.63;;;1.60;;
10582;SDS011;33679;51.218;6.786;2023-04-24T13:05:50;2.93;;;1.57;;
10582;SDS011;33679;51.218;6.786;2023-04-24T13:08:23;3.00;;;1.60;;
10582;SDS011;33679;51.218;6.786;2023-04-24T13:10:55;4.00;;;1.13;;
10582;SDS011;33679;51.218;6.786;2023-04-24T13:13:28;5.03;;;1.77;;
10582;SDS011;33679;51.218;6.786;2023-04-24T13:16:01;3.30;;;1.90;;
10582;SDS011;33679;51.218;6.786;2023-04-24T13:18:36;1.40;;;1.20;;
10582;SDS011;33679;51.218;6.786;2023-04-24T13:21:09;3.43;;;1.57;;
10582;SDS011;33679;51.218;6.786;2023-04-24T13:23:41;10.43;;;6.17;;
10582;SDS011;33679;51.218;6.786;2023-04-24T13:26:14;5.03;;;1.50;;
10582;SDS011;33679;51.218;6.786;2023-04-24T13:28:48;4.00;;;1.47;;
10582;SDS011;33679;51.218;6.786;2023-04-24T13:31:21;2.67;;;1.40;;
10582;SDS011;33679;51.218;6.786;2023-04-24T13:33:53;2.20;;;1.40;;
10582;SDS011;33679;51.218;6.786;2023-04-24T13:36:27;2.50;;;1.40;;
10582;SDS011;33679;51.218;6.786;2023-04-24T13:38:59;2.83;;;1.83;;
10582;SDS011;33679;51.218;6.786;2023-04-24T13:41:34;4.57;;;1.80;;
10582;SDS011;33679;51.218;6.786;2023-04-24T13:44:06;9.10;;;6.10;;
10582;SDS011;33679;51.218;6.786;2023-04-24T13:46:38;4.57;;;1.83;;
10582;SDS011;33679;51.218;6.786;2023-04-24T13:49:10;3.80;;;1.53;;
10582;SDS011;33679;51.218;6.786;2023-04-24T13:51:47;1.57;;;1.30;;
10582;SDS011;33679;51.218;6.786;2023-04-24T13:54:19;2.53;;;1.83;;
10582;SDS011;33679;51.218;6.786;2023-04-24T13:56:56;3.10;;;1.60;;
10582;SDS011;33679;51.218;6.786;2023-04-24T13:59:29;3.57;;;1.70;;
10582;SDS011;33679;51.218;6.786;2023-04-24T14:02:01;2.80;;;1.70;;
10582;SDS011;33679;51.218;6.786;2023-04-24T14:04:34;3.20;;;1.80;;
10582;SDS011;33679;51.218;6.786;2023-04-24T14:07:07;4.80;;;1.80;;
10582;SDS011;33679;51.218;6.786;2023-04-24T14:09:41;3.30;;;1.60;;
10582;SDS011;33679;51.218;6.786;2023-04-24T14:12:13;5.07;;;1.83;;
10582;SDS011;33679;51.218;6.786;2023-04-24T14:14:48;2.50;;;1.60;;
10582;SDS011;33679;51.218;6.786;2023-04-24T14:17:21;2.97;;;1.83;;
10582;SDS011;33679;51.218;6.786;2023-04-24T14:19:53;3.03;;;1.27;;
10582;SDS011;33679;51.218;6.786;2023-04-24T14:22:28;4.60;;;1.63;;
10582;SDS011;33679;51.218;6.786;2023-04-24T14:25:00;17.03;;;6.40;;
10582;SDS011;33679;51.218;6.786;2023-04-24T14:27:32;3.50;;;1.90;;
10582;SDS011;33679;51.218;6.786;2023-04-24T14:30:06;4.50;;;2.30;;
10582;SDS011;33679;51.218;6.786;2023-04-24T14:32:39;9.53;;;5.40;;
10582;SDS011;33679;51.218;6.786;2023-04-24T14:35:11;4.57;;;2.13;;
10582;SDS011;33679;51.218;6.786;2023-04-24T14:37:45;3.53;;;1.43;;
10582;SDS011;33679;51.218;6.786;2023-04-24T14:40:21;3.10;;;1.37;;
10582;SDS011;33679;51.218;6.786;2023-04-24T14:42:53;2.60;;;1.40;;
10582;SDS011;33679;51.218;6.786;2023-04-24T14:45:27;4.87;;;1.60;;
10582;SDS011;33679;51.218;6.786;2023-04-24T14:48:00;1.80;;;1.20;;
10582;SDS011;33679;51.218;6.786;2023-04-24T14:50:32;4.00;;;1.27;;
10582;SDS011;33679;51.218;6.786;2023-04-24T14:53:08;1.60;;;1.50;;
10582;SDS011;33679;51.218;6.786;2023-04-24T14:55:41;2.43;;;1.80;;
10582;SDS011;33679;51.218;6.786;2023-04-24T14:58:15;7.27;;;2.00;;
10582;SDS011;33679;51.218;6.786;2023-04-24T15:00:52;2.30;;;1.40;;
10582;SDS011;33679;51.218;6.786;2023-04-24T15:03:25;2.10;;;1.47;;
10582;SDS011;33679;51.218;6.786;2023-04-24T15:05:57;4.93;;;2.70;;
10582;SDS011;33679;51.218;6.786;2023-04-24T15:08:31;2.87;;;1.67;;
10582;SDS011;33679;51.218;6.786;2023-04-24T15:11:03;3.10;;;1.30;;
10582;SDS011;33679;51.218;6.786;2023-04-24T15:13:36;2.70;;;1.87;;
10582;SDS011;33679;51.218;6.786;2023-04-24T15:16:08;1.20;;;1.07;;
10582;SDS011;33679;51.218;6.786;2023-04-24T15:18:41;3.57;;;1.37;;
10582;SDS011;33679;51.218;6.786;2023-04-24T15:21:13;2.40;;;1.40;;
10582;SDS011;33679;51.218;6.786;2023-04-24T15:23:47;3.43;;;1.40;;
10582;SDS011;33679;51.218;6.786;2023-04-24T15:26:19;1.53;;;1.43;;
10582;SDS011;33679;51.218;6.786;2023-04-24T15:28:52;3.37;;;1.50;;
10582;SDS011;33679;51.218;6.786;2023-04-24T15:31:24;1.83;;;1.50;;
10582;SDS011;33679;51.218;6.786;2023-04-24T15:33:57;6.23;;;1.60;;
10582;SDS011;33679;51.218;6.786;2023-04-24T15:36:29;1.73;;;1.30;;
10582;SDS011;33679;51.218;6.786;2023-04-24T15:39:04;4.00;;;1.30;;
10582;SDS011;33679;51.218;6.786;2023-04-24T15:41:36;2.60;;;1.60;;